createdAt,value
2018-04-28T00:01:46.458Z,9.28
2018-04-28T00:04:20.105Z,9.26
2018-04-28T00:06:53.924Z,9.25
2018-04-28T00:09:27.544Z,9.26
2018-04-28T00:12:01.428Z,9.22
2018-04-28T00:14:36.623Z,9.23
2018-04-28T00:17:10.472Z,9.21
2018-04-28T00:19:44.290Z,9.24
2018-04-28T00:22:18.469Z,9.19
2018-04-28T00:24:52.326Z,9.10
2018-04-28T00:27:26.304Z,9.07
2018-04-28T00:30:00.928Z,9.05
2018-04-28T00:32:35.892Z,9.02
2018-04-28T00:35:09.520Z,9.04
2018-04-28T00:37:46.672Z,9.04
2018-04-28T00:40:21.035Z,8.97
2018-04-28T00:42:54.747Z,8.93
2018-04-28T00:45:30.055Z,8.90
2018-04-28T00:48:05.833Z,8.86
2018-04-28T00:50:39.295Z,8.82
2018-04-28T00:53:13.251Z,8.80
2018-04-28T00:55:48.019Z,8.79
2018-04-28T00:58:21.669Z,8.74
2018-04-28T01:00:55.171Z,8.72
2018-04-28T01:03:29.152Z,8.67
2018-04-28T01:06:02.628Z,8.59
2018-04-28T01:08:36.312Z,8.46
2018-04-28T01:11:09.914Z,8.30
2018-04-28T01:13:43.447Z,8.37
2018-04-28T01:16:16.996Z,8.28
2018-04-28T01:18:52.267Z,8.29
2018-04-28T01:21:26.076Z,8.34
2018-04-28T01:23:59.647Z,8.35
2018-04-28T01:26:35.565Z,8.33
2018-04-28T01:29:09.387Z,8.34
2018-04-28T01:31:44.597Z,8.34
2018-04-28T01:34:18.611Z,8.36
2018-04-28T01:39:20.917Z,8.38
2018-04-28T01:41:55.491Z,8.35
2018-04-28T01:44:30.468Z,8.31
2018-04-28T01:47:05.475Z,8.31
2018-04-28T01:49:47.279Z,8.35
2018-04-28T01:52:21.453Z,8.33
2018-04-28T01:55:04.999Z,8.34
2018-04-28T01:57:39.488Z,8.31
2018-04-28T02:00:16.081Z,8.26
2018-04-28T02:02:51.439Z,8.22
2018-04-28T02:05:25.919Z,8.23
2018-04-28T02:08:00.080Z,8.18
2018-04-28T02:10:36.302Z,8.21
2018-04-28T02:13:10.349Z,8.16
2018-04-28T02:15:49.153Z,8.10
2018-04-28T02:18:25.434Z,8.05
2018-04-28T02:21:00.455Z,7.98
2018-04-28T02:23:35.354Z,7.96
2018-04-28T02:26:12.720Z,8.01
2018-04-28T02:28:46.649Z,7.97
2018-04-28T02:31:23.117Z,7.95
2018-04-28T02:33:58.284Z,8.02
2018-04-28T02:36:32.845Z,7.96
2018-04-28T02:39:06.882Z,7.96
2018-04-28T02:41:44.371Z,8.01
2018-04-28T02:44:22.723Z,7.91
2018-04-28T02:46:56.974Z,7.86
2018-04-28T02:49:31.637Z,7.70
2018-04-28T02:52:05.967Z,7.82
2018-04-28T02:54:42.775Z,7.78
2018-04-28T02:57:20.098Z,7.73
2018-04-28T03:02:34.805Z,7.76
2018-04-28T03:05:08.920Z,7.75
2018-04-28T03:07:42.300Z,7.74
2018-04-28T03:10:15.718Z,7.73
2018-04-28T03:12:48.923Z,7.73
2018-04-28T03:15:21.893Z,7.74
2018-04-28T03:17:55.095Z,7.73
2018-04-28T03:20:27.908Z,7.67
2018-04-28T03:23:01.012Z,7.73
2018-04-28T03:25:34.162Z,7.75
2018-04-28T03:28:07.128Z,7.79
2018-04-28T03:30:40.319Z,7.85
2018-04-28T03:33:13.975Z,7.91
2018-04-28T03:35:47.225Z,7.84
2018-04-28T03:38:20.085Z,7.82
2018-04-28T03:40:53.014Z,7.73
2018-04-28T03:43:26.494Z,7.73
2018-04-28T03:46:01.159Z,7.73
2018-04-28T03:48:34.017Z,7.77
2018-04-28T03:51:09.939Z,7.73
2018-04-28T03:53:45.664Z,7.61
2018-04-28T03:56:18.503Z,7.53
2018-04-28T03:59:02.290Z,7.62
2018-04-28T04:03:48.970Z,7.75
2018-04-28T04:06:22.151Z,7.90
2018-04-28T04:08:55.065Z,7.97
2018-04-28T04:11:32.544Z,8.08
2018-04-28T04:14:05.390Z,8.22
2018-04-28T04:16:38.578Z,8.37
2018-04-28T04:19:12.110Z,8.33
2018-04-28T04:21:45.183Z,8.63
2018-04-28T04:24:18.066Z,9.15
2018-04-28T04:26:51.776Z,10.26
2018-04-28T04:29:24.732Z,11.48
2018-04-28T04:31:57.979Z,12.57
2018-04-28T04:34:38.094Z,12.75
2018-04-28T04:37:11.130Z,12.49
2018-04-28T04:39:44.504Z,11.62
2018-04-28T04:42:18.114Z,11.24
2018-04-28T04:44:51.089Z,10.86
2018-04-28T04:47:24.835Z,10.85
2018-04-28T04:49:57.717Z,10.83
2018-04-28T04:52:31.644Z,10.74
2018-04-28T04:55:05.069Z,10.71
2018-04-28T04:57:38.307Z,10.68
2018-04-28T05:00:11.598Z,10.69
2018-04-28T05:02:47.052Z,10.60
2018-04-28T05:05:20.554Z,10.58
2018-04-28T05:07:56.543Z,10.50
2018-04-28T05:10:31.291Z,10.52
2018-04-28T05:13:04.274Z,10.62
2018-04-28T05:15:37.346Z,10.86
2018-04-28T05:18:10.979Z,11.12
2018-04-28T05:20:43.879Z,11.29
2018-04-28T05:23:17.413Z,11.50
2018-04-28T05:25:51.409Z,11.67
2018-04-28T05:28:28.827Z,11.76
2018-04-28T05:31:03.871Z,11.80
2018-04-28T05:33:37.265Z,11.82
2018-04-28T05:36:11.919Z,11.98
2018-04-28T05:38:45.822Z,12.07
2018-04-28T05:41:19.689Z,12.29
2018-04-28T05:43:57.662Z,12.51
2018-04-28T05:46:31.134Z,12.78
2018-04-28T05:49:05.437Z,13.14
2018-04-28T05:51:40.806Z,13.28
2018-04-28T05:54:14.144Z,13.50
2018-04-28T05:56:56.835Z,13.69
2018-04-28T05:59:38.971Z,13.85
2018-04-28T06:02:14.634Z,13.94
2018-04-28T06:04:47.969Z,14.05
2018-04-28T06:07:21.408Z,14.14
2018-04-28T06:09:57.824Z,14.37
2018-04-28T06:12:31.647Z,14.55
2018-04-28T06:15:05.124Z,14.69
2018-04-28T06:17:47.679Z,14.77
2018-04-28T06:20:26.741Z,14.80
2018-04-28T06:23:00.032Z,14.99
2018-04-28T06:25:34.020Z,15.19
2018-04-28T06:28:10.567Z,15.30
2018-04-28T06:30:43.544Z,15.28
2018-04-28T06:33:16.827Z,15.37
2018-04-28T06:35:50.305Z,15.42
2018-04-28T06:38:24.933Z,15.55
2018-04-28T06:41:01.780Z,15.60
2018-04-28T06:43:35.155Z,15.57
2018-04-28T06:46:08.658Z,15.70
2018-04-28T06:48:42.905Z,15.71
2018-04-28T06:51:18.661Z,15.85
2018-04-28T06:53:53.199Z,15.96
2018-04-28T06:56:26.489Z,16.13
2018-04-28T07:01:29.103Z,16.26
2018-04-28T07:04:02.049Z,16.20
2018-04-28T07:06:36.657Z,16.25
2018-04-28T07:09:09.801Z,16.16
2018-04-28T07:11:46.011Z,16.29
2018-04-28T07:14:20.891Z,16.36
2018-04-28T07:16:54.009Z,16.45
2018-04-28T07:19:27.084Z,16.69
2018-04-28T07:22:00.290Z,16.79
2018-04-28T07:24:33.938Z,16.79
2018-04-28T07:27:06.823Z,17.04
2018-04-28T07:29:40.387Z,16.98
2018-04-28T07:32:14.005Z,16.98
2018-04-28T07:34:48.601Z,17.08
2018-04-28T07:37:21.541Z,17.22
2018-04-28T07:39:55.857Z,17.11
2018-04-28T07:42:29.398Z,17.52
2018-04-28T07:45:02.740Z,17.54
2018-04-28T07:47:38.155Z,17.64
2018-04-28T07:50:11.246Z,17.62
2018-04-28T07:52:44.137Z,17.35
2018-04-28T07:55:18.159Z,17.47
2018-04-28T07:57:53.337Z,17.48
2018-04-28T08:00:27.058Z,17.47
2018-04-28T08:03:01.174Z,17.38
2018-04-28T08:05:35.425Z,17.55
2018-04-28T08:08:09.067Z,17.66
2018-04-28T08:10:44.229Z,17.77
2018-04-28T08:13:19.209Z,17.68
2018-04-28T08:15:53.716Z,17.89
2018-04-28T08:18:27.141Z,17.94
2018-04-28T08:21:02.107Z,17.97
2018-04-28T08:23:35.623Z,17.93
2018-04-28T08:26:17.866Z,17.97
2018-04-28T08:28:51.713Z,17.92
2018-04-28T08:31:27.541Z,18.00
2018-04-28T08:34:02.871Z,18.04
2018-04-28T08:36:36.807Z,18.14
2018-04-28T08:39:10.704Z,18.35
2018-04-28T08:41:47.617Z,18.18
2018-04-28T08:44:22.151Z,18.57
2018-04-28T08:46:56.241Z,18.71
2018-04-28T08:49:29.497Z,18.58
2018-04-28T08:52:04.144Z,18.44
2018-04-28T08:54:38.484Z,18.63
2018-04-28T08:57:12.263Z,18.64
2018-04-28T09:00:58.568Z,18.90
2018-04-28T09:03:37.323Z,18.82
2018-04-28T09:06:10.915Z,18.78
2018-04-28T09:08:48.470Z,19.05
2018-04-28T09:11:22.103Z,19.15
2018-04-28T09:13:56.117Z,19.09
2018-04-28T09:16:29.539Z,19.19
2018-04-28T09:19:02.944Z,19.34
2018-04-28T09:21:38.285Z,19.03
2018-04-28T09:24:12.826Z,19.01
2018-04-28T09:26:49.126Z,19.11
2018-04-28T09:29:23.138Z,19.23
2018-04-28T09:32:03.494Z,19.04
2018-04-28T09:34:39.090Z,19.03
2018-04-28T09:37:13.140Z,18.99
2018-04-28T09:39:49.082Z,19.68
2018-04-28T09:42:31.284Z,19.88
2018-04-28T09:45:05.272Z,19.61
2018-04-28T09:47:44.224Z,19.58
2018-04-28T09:50:19.139Z,19.86
2018-04-28T09:52:53.918Z,19.72
2018-04-28T09:55:27.724Z,19.83
2018-04-28T09:58:06.456Z,19.95
2018-04-28T10:00:44.076Z,19.98
2018-04-28T10:03:22.093Z,20.30
2018-04-28T10:05:56.012Z,20.28
2018-04-28T10:08:31.058Z,20.33
2018-04-28T10:11:04.539Z,20.45
2018-04-28T10:13:39.293Z,20.50
2018-04-28T10:16:14.561Z,20.62
2018-04-28T10:18:52.388Z,20.57
2018-04-28T10:21:27.002Z,20.57
2018-04-28T10:24:00.635Z,20.56
2018-04-28T10:26:34.536Z,20.56
2018-04-28T10:29:10.861Z,20.74
2018-04-28T10:31:44.811Z,20.85
2018-04-28T10:34:18.462Z,20.58
2018-04-28T10:36:51.659Z,20.90
2018-04-28T10:39:25.558Z,20.69
2018-04-28T10:41:59.111Z,20.82
2018-04-28T10:44:34.971Z,20.95
2018-04-28T10:47:08.744Z,20.95
2018-04-28T10:49:42.169Z,21.00
2018-04-28T10:54:50.010Z,20.88
2018-04-28T10:57:23.567Z,20.93
2018-04-28T10:59:57.262Z,21.16
2018-04-28T11:02:30.467Z,21.49
2018-04-28T11:05:04.643Z,21.43
2018-04-28T11:07:40.411Z,21.38
2018-04-28T11:10:15.016Z,21.40
2018-04-28T11:12:49.888Z,21.22
2018-04-28T11:15:32.863Z,21.48
2018-04-28T11:18:06.034Z,21.66
2018-04-28T11:20:41.710Z,21.18
2018-04-28T11:23:16.092Z,21.35
2018-04-28T11:25:49.416Z,21.56
2018-04-28T11:28:24.292Z,21.63
2018-04-28T11:30:58.083Z,21.67
2018-04-28T11:33:32.829Z,21.66
2018-04-28T11:36:07.644Z,21.43
2018-04-28T11:38:42.491Z,21.41
2018-04-28T11:41:20.216Z,21.66
2018-04-28T11:43:53.553Z,21.69
2018-04-28T11:46:27.849Z,21.65
2018-04-28T11:49:01.232Z,21.83
2018-04-28T11:51:34.971Z,21.98
2018-04-28T11:54:10.916Z,22.17
2018-04-28T11:56:46.887Z,22.50
2018-04-28T11:59:21.613Z,22.57
2018-04-28T12:01:55.512Z,22.84
2018-04-28T12:04:28.957Z,22.72
2018-04-28T12:07:02.473Z,23.27
2018-04-28T12:09:36.359Z,23.42
2018-04-28T12:12:09.842Z,23.43
2018-04-28T12:14:45.582Z,23.45
2018-04-28T12:17:21.252Z,23.62
2018-04-28T12:19:58.481Z,23.70
2018-04-28T12:22:32.825Z,23.38
2018-04-28T12:25:08.498Z,23.26
2018-04-28T12:27:42.126Z,23.46
2018-04-28T12:30:24.500Z,23.53
2018-04-28T12:33:04.069Z,23.59
2018-04-28T12:35:39.646Z,23.62
2018-04-28T12:38:15.123Z,23.93
2018-04-28T12:40:52.672Z,23.50
2018-04-28T12:43:26.257Z,23.16
2018-04-28T12:45:59.593Z,23.24
2018-04-28T12:48:34.402Z,23.24
2018-04-28T12:51:08.640Z,23.27
2018-04-28T12:53:41.769Z,23.55
2018-04-28T12:56:17.470Z,23.27
2018-04-28T12:58:51.073Z,23.47
2018-04-28T13:01:24.724Z,23.61
2018-04-28T13:03:58.212Z,23.52
2018-04-28T13:06:34.043Z,23.49
2018-04-28T13:09:07.384Z,23.45
2018-04-28T13:11:40.573Z,23.58
2018-04-28T13:14:14.214Z,23.62
2018-04-28T13:16:48.640Z,23.43
2018-04-28T13:19:27.432Z,22.89
2018-04-28T13:22:10.919Z,22.95
2018-04-28T13:25:04.520Z,23.37
2018-04-28T13:27:39.798Z,23.60
2018-04-28T13:30:14.132Z,23.64
2018-04-28T13:33:03.848Z,23.68
2018-04-28T13:35:39.638Z,23.65
2018-04-28T13:38:14.288Z,23.88
2018-04-28T13:40:48.068Z,23.58
2018-04-28T13:43:22.691Z,23.81
2018-04-28T13:45:57.950Z,23.63
2018-04-28T13:48:32.039Z,24.03
2018-04-28T13:51:06.689Z,23.81
2018-04-28T13:53:40.648Z,23.72
2018-04-28T13:56:21.182Z,23.55
2018-04-28T13:59:07.271Z,23.62
2018-04-28T14:01:47.421Z,23.74
2018-04-28T14:04:24.081Z,23.81
2018-04-28T14:06:57.793Z,23.88
2018-04-28T14:09:30.940Z,23.94
2018-04-28T14:12:04.536Z,23.84
2018-04-28T14:14:37.778Z,23.92
2018-04-28T14:17:11.023Z,23.84
2018-04-28T14:19:45.633Z,23.77
2018-04-28T14:22:26.225Z,24.01
2018-04-28T14:25:06.787Z,23.98
2018-04-28T14:27:48.343Z,23.59
2018-04-28T14:30:22.588Z,23.71
2018-04-28T14:32:56.370Z,23.93
2018-04-28T14:35:29.459Z,23.78
2018-04-28T14:38:02.903Z,23.42
2018-04-28T14:40:37.462Z,23.31
2018-04-28T14:43:11.140Z,23.29
2018-04-28T14:45:45.238Z,22.91
2018-04-28T14:48:18.621Z,22.66
2018-04-28T14:50:52.042Z,22.47
2018-04-28T14:53:25.909Z,22.36
2018-04-28T14:58:36.372Z,22.51
2018-04-28T15:01:10.271Z,22.55
2018-04-28T15:03:45.666Z,22.42
2018-04-28T15:06:21.597Z,22.30
2018-04-28T15:08:55.348Z,22.29
2018-04-28T15:11:29.879Z,22.52
2018-04-28T15:14:03.206Z,22.74
2018-04-28T15:16:37.138Z,22.87
2018-04-28T15:19:16.791Z,22.69
2018-04-28T15:21:51.282Z,22.45
2018-04-28T15:24:24.307Z,22.22
2018-04-28T15:26:57.531Z,22.34
2018-04-28T15:29:31.211Z,22.28
2018-04-28T15:32:04.475Z,22.34
2018-04-28T15:34:43.831Z,22.28
2018-04-28T15:37:18.137Z,22.20
2018-04-28T15:39:53.776Z,22.19
2018-04-28T15:42:27.191Z,22.06
2018-04-28T15:45:05.968Z,22.13
2018-04-28T15:47:39.886Z,22.14
2018-04-28T15:50:18.779Z,22.11
2018-04-28T15:52:53.185Z,22.17
2018-04-28T15:55:28.632Z,22.14
2018-04-28T15:58:03.392Z,22.17
2018-04-28T16:00:38.690Z,22.30
2018-04-28T16:03:21.256Z,22.33
2018-04-28T16:06:01.817Z,22.32
2018-04-28T16:08:39.522Z,22.31
2018-04-28T16:11:14.131Z,22.37
2018-04-28T16:13:48.019Z,22.57
2018-04-28T16:16:21.324Z,22.36
2018-04-28T16:18:55.356Z,22.57
2018-04-28T16:21:28.622Z,22.61
2018-04-28T16:24:01.946Z,22.71
2018-04-28T16:26:36.033Z,22.70
2018-04-28T16:29:09.188Z,22.63
2018-04-28T16:31:43.573Z,22.62
2018-04-28T16:34:16.969Z,22.67
2018-04-28T16:36:51.823Z,22.53
2018-04-28T16:39:25.043Z,22.28
2018-04-28T16:42:01.876Z,22.31
2018-04-28T16:44:35.075Z,22.35
2018-04-28T16:47:08.927Z,22.19
2018-04-28T16:49:42.596Z,21.99
2018-04-28T16:52:15.823Z,22.03
2018-04-28T16:54:49.166Z,21.89
2018-04-28T16:57:22.679Z,21.78
2018-04-28T16:59:55.932Z,21.71
2018-04-28T17:02:29.192Z,21.65
2018-04-28T17:05:03.546Z,21.82
2018-04-28T17:07:37.409Z,21.81
2018-04-28T17:10:11.089Z,21.81
2018-04-28T17:12:44.527Z,21.71
2018-04-28T17:17:55.500Z,21.60
2018-04-28T17:20:29.010Z,21.47
2018-04-28T17:23:02.698Z,21.12
2018-04-28T17:25:37.114Z,20.95
2018-04-28T17:28:10.303Z,20.75
2018-04-28T17:30:44.856Z,20.52
2018-04-28T17:33:24.816Z,20.27
2018-04-28T17:35:58.473Z,20.02
2018-04-28T17:38:32.662Z,19.72
2018-04-28T17:41:06.333Z,19.50
2018-04-28T17:43:40.039Z,19.27
2018-04-28T17:46:18.923Z,19.06
2018-04-28T17:48:52.412Z,18.84
2018-04-28T17:51:26.557Z,18.70
2018-04-28T17:54:02.316Z,18.43
2018-04-28T17:56:36.490Z,18.34
2018-04-28T17:59:13.248Z,18.18
2018-04-28T18:01:46.593Z,18.10
2018-04-28T18:04:20.032Z,18.01
2018-04-28T18:07:03.749Z,17.92
2018-04-28T18:09:45.704Z,17.77
2018-04-28T18:12:19.323Z,17.70
2018-04-28T18:14:53.075Z,17.65
2018-04-28T18:17:26.415Z,17.77
2018-04-28T18:20:01.856Z,17.75
2018-04-28T18:22:35.866Z,17.77
2018-04-28T18:25:10.135Z,17.78
2018-04-28T18:27:44.169Z,17.70
2018-04-28T18:30:18.804Z,17.69
2018-04-28T18:32:59.172Z,17.59
2018-04-28T18:35:33.807Z,17.43
2018-04-28T18:38:07.664Z,17.34
2018-04-28T18:40:41.244Z,17.22
2018-04-28T18:43:18.043Z,17.06
2018-04-28T18:45:56.554Z,16.99
2018-04-28T18:48:30.904Z,16.85
2018-04-28T18:51:07.376Z,16.76
2018-04-28T18:53:40.706Z,16.70
2018-04-28T18:56:14.398Z,16.68
2018-04-28T18:58:47.726Z,16.58
2018-04-28T19:01:21.331Z,16.56
2018-04-28T19:03:55.028Z,16.55
2018-04-28T19:06:29.358Z,16.39
2018-04-28T19:09:02.774Z,16.40
2018-04-28T19:11:41.876Z,16.31
2018-04-28T19:14:21.029Z,16.22
2018-04-28T19:17:00.364Z,16.17
2018-04-28T19:19:41.123Z,16.20
2018-04-28T19:22:19.612Z,16.20
2018-04-28T19:24:54.370Z,16.16
2018-04-28T19:27:27.957Z,16.14
2018-04-28T19:30:02.118Z,16.04
2018-04-28T19:32:35.307Z,16.07
2018-04-28T19:35:13.911Z,16.19
2018-04-28T19:37:47.935Z,16.25
2018-04-28T19:40:23.859Z,16.14
2018-04-28T19:42:57.276Z,16.10
2018-04-28T19:45:31.740Z,16.01
2018-04-28T19:48:05.096Z,16.15
2018-04-28T19:50:38.874Z,15.98
2018-04-28T19:53:12.071Z,15.87
2018-04-28T19:55:45.823Z,15.87
2018-04-28T19:58:19.235Z,15.96
2018-04-28T20:00:52.740Z,15.91
2018-04-28T20:03:26.585Z,15.96
2018-04-28T20:06:00.856Z,15.92
2018-04-28T20:08:34.686Z,15.77
2018-04-28T20:11:07.896Z,15.67
2018-04-28T20:13:41.503Z,15.68
2018-04-28T20:16:14.940Z,15.76
2018-04-28T20:18:50.634Z,15.76
2018-04-28T20:23:59.017Z,15.67
2018-04-28T20:26:32.282Z,15.54
2018-04-28T20:29:05.925Z,15.54
2018-04-28T20:31:39.448Z,15.48
2018-04-28T20:34:12.612Z,15.51
2018-04-28T20:36:46.500Z,15.41
2018-04-28T20:39:22.655Z,15.38
2018-04-28T20:41:57.179Z,15.26
2018-04-28T20:44:31.840Z,15.23
2018-04-28T20:47:05.125Z,15.19
2018-04-28T20:49:38.743Z,15.05
2018-04-28T20:52:13.173Z,14.93
2018-04-28T20:54:47.124Z,14.89
2018-04-28T20:57:22.267Z,14.85
2018-04-28T20:59:55.807Z,14.79
2018-04-28T21:02:29.558Z,14.72
2018-04-28T21:05:02.932Z,14.73
2018-04-28T21:07:36.312Z,14.72
2018-04-28T21:10:09.507Z,14.71
2018-04-28T21:12:43.154Z,14.39
2018-04-28T21:15:17.729Z,14.37
2018-04-28T21:17:51.190Z,14.34
2018-04-28T21:20:24.597Z,14.25
2018-04-28T21:22:58.568Z,14.24
2018-04-28T21:25:32.257Z,14.19
2018-04-28T21:28:05.596Z,14.14
2018-04-28T21:30:39.897Z,14.05
2018-04-28T21:33:13.353Z,14.00
2018-04-28T21:35:46.790Z,13.93
2018-04-28T21:38:20.413Z,13.85
2018-04-28T21:40:57.484Z,13.75
2018-04-28T21:43:30.507Z,13.69
2018-04-28T21:46:03.461Z,13.60
2018-04-28T21:48:37.285Z,13.56
2018-04-28T21:51:10.335Z,13.59
2018-04-28T21:53:43.448Z,13.60
2018-04-28T21:56:16.959Z,13.57
2018-04-28T21:58:51.828Z,13.52
2018-04-28T22:01:25.955Z,13.42
2018-04-28T22:03:59.458Z,13.38
2018-04-28T22:06:32.679Z,13.41
2018-04-28T22:09:07.576Z,13.47
2018-04-28T22:11:41.022Z,13.48
2018-04-28T22:14:14.586Z,13.55
2018-04-28T22:16:53.238Z,13.63
2018-04-28T22:19:26.607Z,13.64
2018-04-28T22:21:59.882Z,13.45
2018-04-28T22:24:33.215Z,13.56
2018-04-28T22:27:15.608Z,13.58
2018-04-28T22:29:48.994Z,13.57
2018-04-28T22:32:22.250Z,13.58
2018-04-28T22:34:55.281Z,13.69
2018-04-28T22:37:28.635Z,13.64
2018-04-28T22:40:01.878Z,13.67
2018-04-28T22:42:35.092Z,13.44
2018-04-28T22:45:08.068Z,13.38
2018-04-28T22:47:41.302Z,13.25
2018-04-28T22:50:14.340Z,13.10
2018-04-28T22:52:47.651Z,13.08
2018-04-28T22:55:20.737Z,12.89
2018-04-28T22:57:53.911Z,12.77
2018-04-28T23:00:27.502Z,12.72
2018-04-28T23:03:00.364Z,12.68
2018-04-28T23:05:34.346Z,12.58
2018-04-28T23:08:08.101Z,12.54
2018-04-28T23:10:41.095Z,12.43
2018-04-28T23:13:14.386Z,12.50
2018-04-28T23:15:47.640Z,12.44
2018-04-28T23:18:21.679Z,12.46
2018-04-28T23:20:55.135Z,12.44
2018-04-28T23:23:28.379Z,12.43
2018-04-28T23:26:01.458Z,12.34
2018-04-28T23:28:35.140Z,12.33
2018-04-28T23:31:08.760Z,12.34
2018-04-28T23:33:42.262Z,12.35
2018-04-28T23:36:15.423Z,12.33
2018-04-28T23:38:49.053Z,12.33
2018-04-28T23:41:22.432Z,12.30
2018-04-28T23:43:55.493Z,12.40
2018-04-28T23:46:28.623Z,12.26
2018-04-28T23:49:02.030Z,12.44
2018-04-28T23:51:35.441Z,12.58
2018-04-28T23:54:09.151Z,12.64
2018-04-28T23:56:42.430Z,12.78
2018-04-28T23:59:15.673Z,12.83
